Time;durP1;ratioP1;P1;durP2;ratioP2;P2;SDS_P1;SDS_P2;PMS_P1;PMS_P2;Temp;Humidity;BMP_temperature;BMP_pressure;BME280_temperature;BME280_humidity;BME280_pressure;Samples;Min_cycle;Max_cycle;Signal;HPM_P1;HPM_P2
2023/06/19 00:01:18;;;;;;;7.40;2.92;;;;;;;26.10;24.87;99490.53;5075147;28;20294;-65
2023/06/19 00:03:43;;;;;;;10.43;2.83;;;;;;;25.95;24.80;99484.13;5077847;28;20445;-65
2023/06/19 00:06:12;;;;;;;5.03;2.85;;;;;;;25.81;25.05;99489.19;5047197;28;20068;-65
2023/06/19 00:08:41;;;;;;;15.70;3.20;;;;;;;25.73;25.37;99484.22;5053984;28;20058;-65
2023/06/19 00:11:08;;;;;;;6.93;2.75;;;;;;;25.78;25.15;99486.16;5054537;28;20032;-66
2023/06/19 00:13:34;;;;;;;8.93;2.90;;;;;;;25.60;25.69;99492.00;5030670;28;20040;-65
2023/06/19 00:16:00;;;;;;;7.97;2.83;;;;;;;25.56;25.69;99493.59;5046897;28;20045;-65
2023/06/19 00:18:27;;;;;;;6.57;2.63;;;;;;;25.53;25.79;99492.22;5055585;28;20067;-65
2023/06/19 00:20:55;;;;;;;7.10;2.88;;;;;;;25.25;26.02;99476.13;5065044;28;20480;-66
2023/06/19 00:23:23;;;;;;;6.97;2.53;;;;;;;25.31;25.92;99480.53;5049877;28;20040;-66
2023/06/19 00:25:49;;;;;;;6.32;2.88;;;;;;;25.17;25.93;99481.22;5036298;28;20048;-65
2023/06/19 00:28:19;;;;;;;6.22;2.80;;;;;;;25.08;25.78;99475.41;5081431;28;20064;-65
2023/06/19 00:30:46;;;;;;;6.38;2.95;;;;;;;25.09;26.09;99482.50;5058050;28;20093;-66
2023/06/19 00:33:14;;;;;;;7.03;2.75;;;;;;;24.99;25.91;99482.38;5058978;28;20040;-65
2023/06/19 00:35:41;;;;;;;6.22;2.90;;;;;;;25.11;26.05;99479.53;5059128;28;20044;-65
2023/06/19 00:38:08;;;;;;;11.52;2.80;;;;;;;25.21;26.25;99485.06;5059682;28;20127;-66
2023/06/19 00:40:34;;;;;;;8.82;2.70;;;;;;;25.33;25.72;99478.41;5076907;28;20071;-65
2023/06/19 00:43:01;;;;;;;4.47;2.35;;;;;;;25.44;25.43;99485.59;5093788;28;20044;-65
2023/06/19 00:45:28;;;;;;;6.90;2.72;;;;;;;25.47;25.32;99485.09;5092648;28;20391;-66
2023/06/19 00:47:58;;;;;;;8.82;2.80;;;;;;;25.60;25.42;99479.22;5092633;28;20397;-65
2023/06/19 00:50:24;;;;;;;6.95;2.50;;;;;;;25.60;25.46;99494.72;5075288;28;20059;-65
2023/06/19 00:52:50;;;;;;;9.38;3.30;;;;;;;25.49;25.45;99485.66;5059127;28;20067;-66
2023/06/19 00:55:17;;;;;;;11.05;3.60;;;;;;;25.49;25.60;99498.44;5093579;28;20379;-66
2023/06/19 00:57:43;;;;;;;7.72;3.10;;;;;;;25.50;25.41;99492.72;5092585;28;20040;-65
2023/06/19 01:00:12;;;;;;;12.85;2.97;;;;;;;25.57;25.22;99490.59;5075415;28;20055;-67
2023/06/19 01:02:40;;;;;;;7.32;3.00;;;;;;;25.51;25.78;99494.34;5091851;28;20051;-67
2023/06/19 01:05:06;;;;;;;5.53;2.80;;;;;;;25.41;25.24;99499.72;5059371;28;20052;-65
2023/06/19 01:07:40;;;;;;;5.97;3.58;;;;;;;25.29;25.38;99496.31;5092217;28;20054;-66
2023/06/19 01:10:11;;;;;;;6.32;2.90;;;;;;;25.43;25.78;99499.47;5093170;28;20039;-66
2023/06/19 01:12:50;;;;;;;5.82;2.45;;;;;;;25.32;25.58;99490.34;5075731;28;20127;-66
2023/06/19 01:15:18;;;;;;;11.07;3.20;;;;;;;25.17;25.71;99498.31;5075891;28;20043;-65
2023/06/19 01:17:46;;;;;;;7.85;3.20;;;;;;;25.23;25.33;99496.50;5093930;28;20036;-66
2023/06/19 01:20:13;;;;;;;12.13;3.75;;;;;;;25.20;25.98;99505.16;5077803;28;20043;-65
2023/06/19 01:22:39;;;;;;;12.63;4.72;;;;;;;25.06;25.60;99493.88;5061457;28;20059;-66
2023/06/19 01:25:06;;;;;;;12.48;5.18;;;;;;;24.88;25.97;99497.75;5093282;28;20044;-64
2023/06/19 01:27:35;;;;;;;14.57;5.90;;;;;;;24.63;26.46;99496.59;5076179;28;20044;-64
2023/06/19 01:30:03;;;;;;;17.08;7.10;;;;;;;24.67;26.51;99495.03;5075157;28;20097;-64
2023/06/19 01:33:02;;;;;;;15.15;6.63;;;;;;;24.67;26.89;99495.84;5075938;28;20427;-67
2023/06/19 01:35:29;;;;;;;16.10;6.45;;;;;;;24.49;27.05;99495.31;5092105;28;20134;-68
2023/06/19 01:37:59;;;;;;;12.88;6.05;;;;;;;24.25;27.19;99485.72;5075464;28;20420;-68
2023/06/19 01:40:27;;;;;;;15.30;6.13;;;;;;;24.30;27.19;99491.22;5057699;28;20040;-68
2023/06/19 01:42:55;;;;;;;13.55;5.47;;;;;;;24.10;27.44;99485.50;5059870;28;20044;-68
2023/06/19 01:45:23;;;;;;;19.77;6.95;;;;;;;24.03;27.69;99493.00;5036551;28;20068;-68
2023/06/19 01:47:49;;;;;;;12.18;5.18;;;;;;;23.98;27.54;99492.91;5003465;28;20083;-69
2023/06/19 01:50:15;;;;;;;13.57;5.38;;;;;;;23.92;27.72;99494.72;5035077;28;20055;-67
2023/06/19 01:52:47;;;;;;;11.38;5.15;;;;;;;23.91;27.48;99490.34;5034679;28;20053;-69
2023/06/19 01:55:13;;;;;;;17.10;5.25;;;;;;;23.97;27.32;99497.50;5034474;28;20090;-67
2023/06/19 01:57:39;;;;;;;12.35;4.45;;;;;;;23.90;28.41;99491.41;5034064;28;20052;-67
2023/06/19 02:00:10;;;;;;;12.45;4.78;;;;;;;23.98;27.87;99501.06;4985035;28;20041;-67
2023/06/19 02:02:43;;;;;;;15.18;4.68;;;;;;;23.78;27.54;99500.69;5035039;28;20056;-67
2023/06/19 02:05:11;;;;;;;8.23;4.35;;;;;;;23.81;28.24;99502.91;5017907;28;20084;-68
2023/06/19 02:07:39;;;;;;;8.80;4.30;;;;;;;23.79;27.34;99502.34;5034644;28;20052;-70
2023/06/19 02:10:05;;;;;;;12.65;4.72;;;;;;;23.79;27.33;99502.34;5001231;28;20064;-68
2023/06/19 02:12:33;;;;;;;7.35;4.00;;;;;;;23.71;27.86;99508.19;4997188;28;20053;-67
2023/06/19 02:15:02;;;;;;;7.43;4.30;;;;;;;23.66;27.77;99510.81;5013687;28;20082;-67
2023/06/19 02:17:34;;;;;;;11.30;3.95;;;;;;;23.63;27.79;99503.16;5013667;28;20045;-67
2023/06/19 02:20:00;;;;;;;7.80;3.85;;;;;;;23.63;27.73;99500.44;5010264;28;20057;-66
2023/06/19 02:22:46;;;;;;;10.32;3.90;;;;;;;23.64;27.75;99505.63;4979766;28;20049;-67
2023/06/19 02:25:12;;;;;;;11.02;3.40;;;;;;;23.62;27.99;99509.66;5030260;28;20080;-68
2023/06/19 02:27:39;;;;;;;11.05;4.05;;;;;;;23.75;27.91;99502.03;5014139;28;20584;-67
2023/06/19 02:30:06;;;;;;;7.78;3.85;;;;;;;23.80;27.80;99504.78;4997463;28;20051;-68
2023/06/19 02:32:34;;;;;;;9.57;3.60;;;;;;;23.74;27.89;99494.13;5013175;28;20489;-67
2023/06/19 02:35:08;;;;;;;9.43;3.60;;;;;;;23.98;27.96;99492.91;5012862;28;20048;-68
2023/06/19 02:37:36;;;;;;;9.32;3.80;;;;;;;23.75;28.10;99485.75;5058418;28;20290;-67
2023/06/19 02:40:10;;;;;;;7.93;3.97;;;;;;;23.93;27.85;99490.09;5016622;28;20601;-67
2023/06/19 02:42:37;;;;;;;13.77;3.95;;;;;;;23.87;28.33;99504.63;5000998;28;20448;-70
2023/06/19 02:45:04;;;;;;;9.30;3.55;;;;;;;23.96;27.78;99504.03;5033073;28;20102;-66
2023/06/19 02:47:39;;;;;;;8.15;3.60;;;;;;;23.95;27.79;99501.53;5019133;28;20067;-67
2023/06/19 02:50:06;;;;;;;17.02;4.32;;;;;;;24.05;27.99;99499.00;5032715;28;20432;-67
2023/06/19 02:52:33;;;;;;;15.77;4.90;;;;;;;23.96;27.92;99497.75;5000258;28;21159;-65
2023/06/19 02:55:01;;;;;;;12.68;4.03;;;;;;;24.05;27.75;99502.53;5033003;28;20137;-65
2023/06/19 02:57:30;;;;;;;9.52;3.90;;;;;;;23.61;27.41;99508.00;5017214;28;20111;-72
2023/06/19 02:59:55;;;;;;;10.85;4.25;;;;;;;23.18;27.98;99503.97;5027184;28;20053;-68
2023/06/19 03:02:21;;;;;;;11.68;4.55;;;;;;;23.25;28.92;99491.09;5011328;28;20085;-70
2023/06/19 03:04:47;;;;;;;14.15;4.35;;;;;;;23.53;29.32;99501.09;5028087;28;20069;-69
2023/06/19 03:07:16;;;;;;;15.95;4.03;;;;;;;23.97;28.48;99494.00;5028856;28;20132;-66
2023/06/19 03:09:42;;;;;;;14.80;3.60;;;;;;;24.47;27.49;99500.16;5026984;28;20038;-69
2023/06/19 03:12:09;;;;;;;12.00;3.53;;;;;;;24.89;27.05;99485.00;5067448;28;20181;-68
2023/06/19 03:14:35;;;;;;;13.20;3.78;;;;;;;25.16;26.46;99504.84;5052944;28;20048;-67
2023/06/19 03:17:01;;;;;;;17.52;3.85;;;;;;;25.49;26.40;99514.75;5069705;28;20056;-67
2023/06/19 03:19:29;;;;;;;9.63;3.78;;;;;;;25.69;25.64;99501.34;5052836;28;20096;-70
2023/06/19 03:21:54;;;;;;;9.68;3.63;;;;;;;25.98;25.38;99510.81;5070354;28;20040;-68
2023/06/19 03:24:20;;;;;;;11.93;4.10;;;;;;;26.11;25.09;99510.38;5057034;28;20044;-70
2023/06/19 03:26:47;;;;;;;10.40;3.63;;;;;;;26.27;24.94;99509.44;5058950;28;20047;-68
2023/06/19 03:29:13;;;;;;;11.85;3.95;;;;;;;26.35;24.92;99515.19;5073555;28;20102;-68
2023/06/19 03:32:02;;;;;;;8.13;3.90;;;;;;;26.59;24.76;99521.06;5070422;28;20078;-67
2023/06/19 03:34:32;;;;;;;7.03;3.30;;;;;;;26.79;24.14;99520.34;5074178;28;20054;-68
2023/06/19 03:36:59;;;;;;;7.15;3.78;;;;;;;26.92;24.32;99518.00;5073526;28;20113;-67
2023/06/19 03:39:25;;;;;;;11.10;3.97;;;;;;;27.02;24.13;99519.91;5073193;28;20443;-67
2023/06/19 03:41:54;;;;;;;11.95;3.80;;;;;;;27.06;24.03;99521.81;5056328;28;20048;-67
2023/06/19 03:44:20;;;;;;;13.55;3.80;;;;;;;27.15;23.66;99524.88;5055261;28;20388;-68
2023/06/19 03:46:47;;;;;;;10.27;4.00;;;;;;;27.29;23.98;99526.03;5039078;28;20090;-73
2023/06/19 03:49:13;;;;;;;8.95;3.28;;;;;;;27.29;23.54;99515.13;5061722;28;20040;-69
2023/06/19 03:51:40;;;;;;;10.38;3.70;;;;;;;27.35;23.64;99514.88;5066602;28;20048;-69
2023/06/19 03:54:06;;;;;;;13.13;3.88;;;;;;;27.54;22.99;99520.63;5066713;28;20047;-69
2023/06/19 03:56:32;;;;;;;11.65;3.65;;;;;;;27.52;22.89;99531.00;5083924;28;20059;-70
2023/06/19 03:58:58;;;;;;;8.95;3.90;;;;;;;27.64;22.74;99524.19;5063346;28;20044;-69
2023/06/19 04:01:24;;;;;;;9.27;3.65;;;;;;;27.64;22.72;99537.00;5081171;28;20113;-74
2023/06/19 04:03:50;;;;;;;11.35;3.72;;;;;;;27.74;22.91;99535.13;5077821;28;20067;-69
2023/06/19 04:06:17;;;;;;;7.80;3.67;;;;;;;27.75;22.65;99528.56;5062616;28;20032;-70
2023/06/19 04:08:43;;;;;;;12.85;3.85;;;;;;;27.76;22.89;99530.22;5055283;28;20113;-70
2023/06/19 04:11:12;;;;;;;6.28;3.55;;;;;;;27.76;22.91;99527.47;5082638;28;20048;-70
2023/06/19 04:13:38;;;;;;;8.57;3.70;;;;;;;27.95;22.54;99530.53;5089205;28;20697;-70
2023/06/19 04:16:05;;;;;;;7.65;3.58;;;;;;;28.16;22.61;99526.69;5058599;28;20036;-71
2023/06/19 04:18:32;;;;;;;7.80;4.25;;;;;;;28.23;22.57;99532.66;5058045;28;20214;-72
2023/06/19 04:21:00;;;;;;;12.43;3.78;;;;;;;28.41;22.22;99526.66;5049092;28;20055;-70
2023/06/19 04:23:27;;;;;;;6.72;3.40;;;;;;;28.46;22.06;99526.63;5054768;28;20047;-70
2023/06/19 04:25:53;;;;;;;12.20;3.88;;;;;;;28.52;22.23;99525.56;5071667;28;20044;-70
2023/06/19 04:28:21;;;;;;;10.98;3.80;;;;;;;28.54;22.26;99528.03;5040101;28;20075;-76
2023/06/19 04:31:12;;;;;;;16.52;3.88;;;;;;;28.74;22.35;99530.69;5040133;28;20512;-72
2023/06/19 04:33:40;;;;;;;5.40;3.42;;;;;;;28.72;21.96;99530.97;5051788;28;20510;-72
2023/06/19 04:36:05;;;;;;;13.63;3.95;;;;;;;28.84;21.41;99517.81;5019005;28;20044;-72
2023/06/19 04:38:32;;;;;;;8.30;3.65;;;;;;;28.82;21.94;99521.91;5051012;28;20206;-71
2023/06/19 04:40:58;;;;;;;10.65;3.80;;;;;;;28.85;21.77;99515.88;5053970;28;20079;-72
2023/06/19 04:43:24;;;;;;;10.63;4.00;;;;;;;28.90;21.66;99513.13;5038408;28;20064;-72
2023/06/19 04:45:51;;;;;;;10.57;4.63;;;;;;;29.00;21.86;99524.84;5054113;28;20098;-73
2023/06/19 04:48:17;;;;;;;15.50;4.43;;;;;;;28.95;22.15;99524.03;5004933;28;20476;-72
2023/06/19 04:50:43;;;;;;;14.32;4.40;;;;;;;29.00;21.82;99522.09;5070127;28;20310;-74
2023/06/19 04:53:10;;;;;;;16.23;4.00;;;;;;;29.06;21.68;99520.22;5037197;28;20040;-75
2023/06/19 04:55:36;;;;;;;10.60;3.75;;;;;;;29.19;21.48;99517.66;5054038;28;20060;-72
2023/06/19 04:58:01;;;;;;;13.88;3.85;;;;;;;29.16;21.55;99520.97;5053214;28;20068;-71
2023/06/19 05:00:27;;;;;;;11.70;3.45;;;;;;;28.92;21.69;99528.16;5053812;28;20040;-71
2023/06/19 05:02:53;;;;;;;10.43;4.00;;;;;;;29.00;21.37;99529.50;5091125;28;20052;-72
2023/06/19 05:05:19;;;;;;;9.32;4.50;;;;;;;28.99;21.06;99511.44;5075944;28;20135;-72
2023/06/19 05:07:45;;;;;;;9.85;3.78;;;;;;;29.10;21.46;99522.09;5091758;28;20523;-73
2023/06/19 05:10:11;;;;;;;10.10;3.45;;;;;;;29.05;21.43;99519.38;5091791;28;20040;-73
2023/06/19 05:12:37;;;;;;;11.27;3.88;;;;;;;29.11;21.26;99525.63;5090020;28;20082;-72
2023/06/19 05:15:03;;;;;;;11.30;3.90;;;;;;;29.23;21.37;99532.41;5074153;28;20043;-71
2023/06/19 05:17:32;;;;;;;10.68;4.32;;;;;;;29.23;21.41;99521.47;5091381;28;20044;-71
2023/06/19 05:19:58;;;;;;;12.90;3.72;;;;;;;29.40;21.10;99516.44;5091079;28;20097;-75
2023/06/19 05:22:24;;;;;;;10.35;3.72;;;;;;;29.43;21.22;99509.59;5074347;28;20048;-72
2023/06/19 05:24:50;;;;;;;9.50;3.28;;;;;;;29.58;20.76;99529.44;5091409;28;20113;-70
2023/06/19 05:27:16;;;;;;;10.20;3.83;;;;;;;29.72;20.60;99524.22;5095234;28;20048;-75
2023/06/19 05:29:43;;;;;;;12.20;3.83;;;;;;;29.79;20.64;99529.34;5057876;28;20146;-71
2023/06/19 05:32:09;;;;;;;8.32;3.45;;;;;;;29.83;20.27;99523.00;5090577;28;20190;-71
2023/06/19 05:34:34;;;;;;;13.25;3.33;;;;;;;29.99;20.10;99521.78;5091576;28;20044;-72
2023/06/19 05:37:03;;;;;;;9.35;3.95;;;;;;;30.16;19.83;99530.41;5091700;28;20131;-73
2023/06/19 05:39:29;;;;;;;15.90;4.97;;;;;;;30.12;19.66;99523.88;5074198;28;20059;-70
2023/06/19 05:41:55;;;;;;;10.80;3.60;;;;;;;30.23;19.46;99524.63;5091627;28;20085;-72
2023/06/19 05:44:21;;;;;;;15.25;3.65;;;;;;;30.23;19.49;99519.16;5091466;28;20040;-70
2023/06/19 05:46:46;;;;;;;8.60;2.78;;;;;;;30.37;18.84;99520.09;5076762;28;20043;-71
2023/06/19 05:49:12;;;;;;;9.18;3.25;;;;;;;30.35;18.60;99520.41;5053400;28;20383;-73
2023/06/19 05:51:38;;;;;;;16.27;3.88;;;;;;;30.32;18.50;99520.16;5070103;28;20051;-70
2023/06/19 05:54:05;;;;;;;10.85;3.65;;;;;;;30.21;19.47;99516.69;5040906;28;20483;-72
2023/06/19 05:56:33;;;;;;;7.10;2.70;;;;;;;30.08;19.00;99506.38;5085474;28;20062;-72
2023/06/19 05:59:00;;;;;;;5.80;2.78;;;;;;;30.01;19.26;99513.28;5052608;28;20047;-72
2023/06/19 06:01:27;;;;;;;13.48;2.88;;;;;;;29.86;19.41;99516.16;5079599;28;20387;-72
2023/06/19 06:03:55;;;;;;;5.32;2.47;;;;;;;29.79;19.28;99513.75;5062589;28;20076;-71
2023/06/19 06:06:22;;;;;;;14.02;3.30;;;;;;;29.76;19.25;99517.03;5051025;28;20036;-72
2023/06/19 06:08:48;;;;;;;9.02;2.92;;;;;;;29.65;18.74;99522.88;5090780;28;20072;-71
2023/06/19 06:11:14;;;;;;;7.35;2.85;;;;;;;29.73;18.58;99519.53;5091991;28;20060;-72
2023/06/19 06:13:40;;;;;;;7.03;3.20;;;;;;;29.61;18.55;99514.41;5090090;28;20040;-74
2023/06/19 06:16:07;;;;;;;5.10;2.90;;;;;;;29.71;17.88;99517.09;5090804;28;20430;-72
2023/06/19 06:18:33;;;;;;;10.13;2.30;;;;;;;29.67;18.21;99523.41;5074241;28;20048;-72
2023/06/19 06:20:59;;;;;;;8.27;2.60;;;;;;;29.82;18.48;99518.63;5071851;28;20373;-72
2023/06/19 06:23:25;;;;;;;7.75;2.28;;;;;;;29.93;17.90;99519.38;5070601;28;20064;-71
2023/06/19 06:25:51;;;;;;;6.35;2.40;;;;;;;29.86;18.16;99516.94;5069788;28;20117;-71
2023/06/19 06:28:17;;;;;;;8.60;2.53;;;;;;;29.91;18.34;99518.88;5069974;28;20476;-70
2023/06/19 06:30:44;;;;;;;7.90;2.25;;;;;;;30.08;18.28;99516.50;5036518;28;20394;-70
2023/06/19 06:33:09;;;;;;;6.28;2.35;;;;;;;30.01;18.71;99505.06;5069987;28;20057;-69
2023/06/19 06:35:35;;;;;;;7.13;2.30;;;;;;;30.11;18.01;99515.91;5073076;28;20052;-71
2023/06/19 06:38:02;;;;;;;3.70;2.22;;;;;;;30.28;17.67;99508.13;5072262;28;20468;-70
2023/06/19 06:40:28;;;;;;;7.05;2.28;;;;;;;30.25;17.88;99505.94;5072099;28;20098;-69
2023/06/19 06:42:54;;;;;;;5.97;2.60;;;;;;;29.98;18.02;99517.44;5053341;28;20484;-69
2023/06/19 06:45:19;;;;;;;8.48;2.70;;;;;;;30.26;18.29;99504.88;5053032;28;20048;-72
2023/06/19 06:47:45;;;;;;;11.02;2.45;;;;;;;30.57;18.43;99517.13;5036571;28;20117;-71
2023/06/19 06:50:11;;;;;;;5.97;2.47;;;;;;;30.67;17.60;99514.28;5069667;28;20468;-72
2023/06/19 06:52:38;;;;;;;8.18;2.90;;;;;;;30.86;17.55;99516.00;5069759;28;20464;-71
2023/06/19 06:55:05;;;;;;;8.32;2.95;;;;;;;30.87;17.38;99505.84;5069662;28;20102;-70
2023/06/19 06:57:30;;;;;;;11.32;2.80;;;;;;;30.87;17.09;99505.84;5070460;28;20040;-69
2023/06/19 06:59:56;;;;;;;24.52;3.05;;;;;;;31.00;17.25;99508.69;5072844;28;20040;-69
2023/06/19 07:02:22;;;;;;;5.97;2.35;;;;;;;31.10;17.14;99513.22;5074362;28;20408;-66
2023/06/19 07:04:48;;;;;;;5.63;1.95;;;;;;;31.28;17.14;99506.09;5047557;28;20055;-67
2023/06/19 07:07:14;;;;;;;7.85;2.15;;;;;;;31.32;16.48;99499.78;5113128;28;20063;-66
2023/06/19 07:09:40;;;;;;;7.28;2.70;;;;;;;31.49;16.22;99494.56;5078789;28;20062;-66
2023/06/19 07:12:07;;;;;;;6.95;2.20;;;;;;;31.61;16.70;99492.19;5078509;28;20066;-66
2023/06/19 07:14:34;;;;;;;18.15;3.45;;;;;;;31.90;16.13;99501.09;5061511;28;20678;-68
2023/06/19 07:17:00;;;;;;;7.05;2.47;;;;;;;32.07;15.69;99495.84;5078730;28;20040;-65
2023/06/19 07:19:26;;;;;;;8.13;2.25;;;;;;;32.35;15.44;99494.78;5112332;28;20067;-67
2023/06/19 07:21:52;;;;;;;9.82;2.65;;;;;;;32.87;15.33;99500.94;5078868;28;20494;-69
2023/06/19 07:24:18;;;;;;;10.75;3.10;;;;;;;33.32;14.58;99495.28;5094793;28;20606;-68
2023/06/19 07:26:46;;;;;;;7.32;2.67;;;;;;;33.99;14.43;99487.94;5060417;28;20040;-67
2023/06/19 07:29:14;;;;;;;6.60;2.80;;;;;;;34.36;14.59;99487.47;5076100;28;20070;-70
2023/06/19 07:31:42;;;;;;;9.52;2.70;;;;;;;34.93;14.56;99488.41;5059408;28;20057;-69
2023/06/19 07:34:08;;;;;;;9.60;2.60;;;;;;;35.76;13.48;99479.72;5075899;28;20051;-68
2023/06/19 07:36:34;;;;;;;14.23;2.45;;;;;;;36.82;12.46;99485.16;5057237;28;20055;-67
2023/06/19 07:39:01;;;;;;;8.05;3.00;;;;;;;37.78;11.73;99485.78;5073798;28;20395;-70
2023/06/19 07:41:27;;;;;;;6.63;2.80;;;;;;;38.83;11.14;99487.91;5058177;28;20044;-72
2023/06/19 07:43:54;;;;;;;9.13;2.70;;;;;;;40.05;10.15;99485.31;5042452;28;20601;-73
2023/06/19 07:46:21;;;;;;;10.05;2.35;;;;;;;41.38;9.35;99485.13;5073813;28;20050;-71
2023/06/19 07:48:50;;;;;;;8.52;2.35;;;;;;;42.89;8.04;99477.69;5058494;28;20094;-71
2023/06/19 07:51:15;;;;;;;10.18;2.63;;;;;;;44.58;7.49;99486.22;5076100;28;20067;-72
2023/06/19 07:53:43;;;;;;;9.35;2.47;;;;;;;46.32;6.28;99494.44;5075713;28;20040;-71
2023/06/19 07:56:09;;;;;;;7.28;2.10;;;;;;;48.01;5.52;99495.78;5093849;28;20043;-72
2023/06/19 07:58:35;;;;;;;3.80;1.90;;;;;;;49.66;4.66;99490.72;5076539;28;20055;-71
2023/06/19 08:01:01;;;;;;;5.97;2.13;;;;;;;51.11;4.03;99479.59;5059606;28;20479;-70
2023/06/19 08:03:28;;;;;;;4.25;1.95;;;;;;;51.55;3.41;99489.66;5059043;28;20136;-72
2023/06/19 08:05:54;;;;;;;7.43;2.03;;;;;;;51.81;3.22;99480.19;5058654;28;20079;-71
2023/06/19 08:08:20;;;;;;;8.50;2.63;;;;;;;52.32;3.03;99487.19;5039298;28;20094;-71
2023/06/19 08:10:47;;;;;;;8.23;2.10;;;;;;;52.87;2.72;99484.16;5055436;28;20123;-70
2023/06/19 08:13:13;;;;;;;6.45;2.08;;;;;;;53.22;2.61;99477.53;5071566;28;20037;-78
2023/06/19 08:15:39;;;;;;;10.05;2.35;;;;;;;53.82;2.72;99472.97;5071922;28;20050;-73
2023/06/19 08:18:05;;;;;;;11.93;2.72;;;;;;;54.60;2.31;99477.78;5071649;28;20314;-72
2023/06/19 08:20:31;;;;;;;10.35;2.67;;;;;;;55.07;2.15;99472.06;5072637;28;20139;-74
2023/06/19 08:22:57;;;;;;;15.48;2.40;;;;;;;55.05;2.13;99464.00;5072928;28;20119;-74
2023/06/19 08:25:23;;;;;;;12.77;2.58;;;;;;;55.25;2.14;99466.53;5073682;28;20082;-75
2023/06/19 08:27:48;;;;;;;10.93;2.35;;;;;;;55.57;2.20;99464.09;5073150;28;20060;-74
2023/06/19 08:30:14;;;;;;;7.85;2.38;;;;;;;55.65;1.68;99467.47;5088742;28;20048;-73
2023/06/19 08:32:40;;;;;;;9.20;2.38;;;;;;;56.06;1.54;99467.88;5055118;28;20040;-73
2023/06/19 08:35:07;;;;;;;7.20;2.20;;;;;;;56.58;1.54;99460.47;5071299;28;20048;-75
2023/06/19 08:37:33;;;;;;;8.60;2.28;;;;;;;56.94;0.97;99463.34;5054831;28;20055;-72
2023/06/19 08:39:59;;;;;;;5.35;2.20;;;;;;;57.46;0.95;99454.47;5070678;28;20044;-72
2023/06/19 08:42:25;;;;;;;4.07;1.58;;;;;;;57.55;0.86;99452.41;5087442;28;20055;-73
2023/06/19 08:44:51;;;;;;;12.73;2.20;;;;;;;57.81;0.72;99464.22;5070672;28;20052;-73
2023/06/19 08:47:17;;;;;;;2.92;1.67;;;;;;;58.12;0.31;99449.69;5072379;28;20037;-73
2023/06/19 08:49:43;;;;;;;7.65;1.95;;;;;;;58.40;0.71;99449.06;5054538;28;20381;-72
2023/06/19 08:52:09;;;;;;;6.88;1.95;;;;;;;58.66;0.50;99449.38;5071106;28;20055;-73
2023/06/19 08:54:43;;;;;;;6.25;1.85;;;;;;;58.87;0.49;99437.63;5091708;28;20086;-73
2023/06/19 08:57:10;;;;;;;4.72;1.50;;;;;;;58.81;0.50;99441.63;5092499;28;20346;-75
2023/06/19 08:59:37;;;;;;;7.57;1.88;;;;;;;59.04;0.37;99444.50;5091222;28;20127;-73
2023/06/19 09:02:04;;;;;;;5.20;1.63;;;;;;;59.02;0.00;99441.31;5057802;28;20072;-73
2023/06/19 09:04:31;;;;;;;3.75;1.80;;;;;;;59.05;0.08;99437.47;5074218;28;20414;-72
2023/06/19 09:07:00;;;;;;;4.97;1.90;;;;;;;59.45;0.02;99433.28;5091894;28;20051;-74
2023/06/19 09:09:28;;;;;;;5.38;1.77;;;;;;;59.83;0.00;99431.13;5074577;28;20131;-73
2023/06/19 09:12:00;;;;;;;5.00;1.70;;;;;;;59.99;0.00;99421.97;5091137;28;20036;-73
2023/06/19 09:14:39;;;;;;;4.30;1.80;;;;;;;60.35;0.00;99423.53;5074008;28;20075;-74
2023/06/19 09:17:11;;;;;;;12.00;2.20;;;;;;;60.80;0.00;99431.50;5091406;28;20123;-73
2023/06/19 09:19:39;;;;;;;6.30;1.88;;;;;;;60.74;0.00;99426.97;5091912;28;20123;-73
2023/06/19 09:22:07;;;;;;;7.97;2.08;;;;;;;61.02;0.00;99428.91;5090727;28;20064;-74
2023/06/19 09:24:41;;;;;;;5.95;1.90;;;;;;;61.28;0.00;99423.97;5090685;28;20067;-74
2023/06/19 09:27:14;;;;;;;11.57;1.90;;;;;;;61.44;0.00;99416.81;5074035;28;20065;-73
2023/06/19 09:29:42;;;;;;;3.63;1.60;;;;;;;61.34;0.00;99412.50;5074053;28;20747;-73
2023/06/19 09:32:28;;;;;;;6.15;2.05;;;;;;;61.51;0.00;99413.47;5073747;28;20040;-71
2023/06/19 09:34:58;;;;;;;9.43;1.90;;;;;;;60.98;0.00;99395.94;5057438;28;20043;-73
2023/06/19 09:37:27;;;;;;;7.28;2.15;;;;;;;60.44;0.00;99406.22;5057377;28;20044;-74
2023/06/19 09:39:57;;;;;;;8.70;2.08;;;;;;;60.39;0.00;99395.44;5090826;28;20071;-75
2023/06/19 09:42:32;;;;;;;6.72;2.38;;;;;;;60.83;0.05;99401.75;5073728;28;20050;-74
2023/06/19 09:45:06;;;;;;;7.75;2.00;;;;;;;61.03;0.00;99396.00;5056208;28;20036;-75
2023/06/19 09:47:46;;;;;;;6.80;2.35;;;;;;;61.19;0.00;99401.13;5072158;28;20044;-75
2023/06/19 09:50:16;;;;;;;8.38;2.58;;;;;;;61.21;0.00;99403.50;5089665;28;20047;-74
2023/06/19 09:52:47;;;;;;;6.43;2.80;;;;;;;60.87;0.00;99387.19;5057036;28;20043;-74
2023/06/19 09:55:14;;;;;;;11.45;3.40;;;;;;;60.63;0.00;99393.13;5073254;28;20047;-75
2023/06/19 09:57:42;;;;;;;10.40;3.15;;;;;;;60.15;0.00;99389.09;5073185;28;20527;-74
2023/06/19 10:00:13;;;;;;;14.05;3.83;;;;;;;59.73;0.00;99391.56;5036940;28;20040;-74
2023/06/19 10:02:45;;;;;;;10.70;3.53;;;;;;;59.32;0.00;99376.25;5070112;28;20067;-74
2023/06/19 10:05:14;;;;;;;13.00;4.10;;;;;;;59.42;0.00;99377.75;5070587;28;20049;-74
2023/06/19 10:07:46;;;;;;;9.95;4.40;;;;;;;59.74;0.00;99375.91;5054317;28;20093;-74
2023/06/19 10:10:27;;;;;;;7.95;3.90;;;;;;;59.82;0.00;99368.50;5021707;28;20558;-74
2023/06/19 10:12:55;;;;;;;8.52;3.78;;;;;;;59.63;0.00;99367.13;5069682;28;20055;-73
2023/06/19 10:15:27;;;;;;;14.45;4.13;;;;;;;59.51;0.00;99363.28;5053833;28;20044;-73
2023/06/19 10:18:00;;;;;;;14.52;4.55;;;;;;;58.98;0.13;99360.53;5069704;28;20696;-73
2023/06/19 10:20:33;;;;;;;12.55;3.80;;;;;;;58.39;0.21;99361.63;5070349;28;20048;-74
2023/06/19 10:23:18;;;;;;;11.02;3.45;;;;;;;58.44;0.04;99360.19;5070739;28;20139;-74
2023/06/19 10:25:46;;;;;;;13.88;3.63;;;;;;;58.28;0.00;99357.72;5071554;28;20042;-72
2023/06/19 10:28:30;;;;;;;10.75;3.53;;;;;;;58.13;0.00;99349.06;5037146;28;20452;-73
2023/06/19 10:31:01;;;;;;;7.20;2.70;;;;;;;57.69;0.10;99353.72;5071279;28;20154;-73
2023/06/19 10:33:29;;;;;;;7.22;2.50;;;;;;;57.61;0.05;99344.72;5070388;28;20040;-73
2023/06/19 10:35:55;;;;;;;9.35;3.03;;;;;;;57.64;0.17;99352.31;5057191;28;20052;-73
2023/06/19 10:38:21;;;;;;;6.05;3.05;;;;;;;58.04;0.00;99351.97;5040864;28;20044;-74
2023/06/19 10:40:47;;;;;;;5.38;2.38;;;;;;;58.12;0.00;99333.19;5074150;28;20041;-73
2023/06/19 10:43:20;;;;;;;6.53;2.40;;;;;;;58.16;0.00;99344.47;5073675;28;20490;-73
2023/06/19 10:45:48;;;;;;;8.82;2.67;;;;;;;57.89;0.00;99348.25;5074019;28;20062;-74
2023/06/19 10:48:22;;;;;;;7.85;2.42;;;;;;;57.79;0.00;99338.13;5073999;28;20083;-73
2023/06/19 10:50:49;;;;;;;4.72;2.40;;;;;;;57.43;0.00;99332.53;5073589;28;20135;-72
2023/06/19 10:53:26;;;;;;;6.10;1.95;;;;;;;57.14;0.00;99335.94;5057221;28;20047;-72
2023/06/19 10:56:00;;;;;;;5.38;2.22;;;;;;;56.95;0.05;99342.16;5073235;28;20103;-72
2023/06/19 10:58:27;;;;;;;9.27;2.60;;;;;;;56.62;0.21;99338.34;5023547;28;20488;-72
2023/06/19 11:00:53;;;;;;;5.22;2.08;;;;;;;55.99;0.35;99327.63;5056740;28;20055;-70
2023/06/19 11:03:20;;;;;;;6.40;2.25;;;;;;;55.34;0.46;99322.13;5057180;28;20066;-70
2023/06/19 11:05:47;;;;;;;6.85;1.98;;;;;;;54.11;1.02;99317.28;5059602;28;20040;-71
2023/06/19 11:08:21;;;;;;;6.05;2.25;;;;;;;52.62;1.56;99322.28;5074146;28;20139;-70
2023/06/19 11:10:47;;;;;;;3.63;1.70;;;;;;;50.90;2.03;99320.72;5073716;28;20072;-70
2023/06/19 11:13:20;;;;;;;4.03;2.40;;;;;;;49.95;2.93;99323.22;5056952;28;20480;-72
2023/06/19 11:15:50;;;;;;;6.55;2.47;;;;;;;48.96;3.22;99315.31;5057536;28;20163;-71
2023/06/19 11:18:17;;;;;;;5.03;2.17;;;;;;;48.02;3.12;99296.56;5056859;28;20181;-70
2023/06/19 11:20:52;;;;;;;5.47;2.30;;;;;;;47.39;3.38;99293.00;5039964;28;20052;-70
2023/06/19 11:23:29;;;;;;;3.45;2.40;;;;;;;46.38;3.79;99288.50;5074608;28;20076;-73
2023/06/19 11:26:03;;;;;;;7.63;2.40;;;;;;;45.21;4.52;99278.34;5074200;28;20044;-71
2023/06/19 11:28:29;;;;;;;7.40;2.20;;;;;;;44.21;5.06;99283.03;5040046;28;20067;-71
2023/06/19 11:31:03;;;;;;;6.25;2.20;;;;;;;43.71;5.04;99286.56;5072755;28;20044;-70
2023/06/19 11:33:32;;;;;;;8.23;2.60;;;;;;;43.08;5.73;99279.09;5039140;28;20170;-70
2023/06/19 11:36:01;;;;;;;8.07;2.55;;;;;;;42.81;5.94;99274.75;5053925;28;20484;-70